createdAt,value
2022-10-26T00:01:04.097Z,36.37
2022-10-26T00:03:30.948Z,24.37
2022-10-26T00:06:12.941Z,22.50
2022-10-26T00:08:39.986Z,23.63
2022-10-26T00:11:07.678Z,25.90
2022-10-26T00:13:35.488Z,20.23
2022-10-26T00:16:07.163Z,17.70
2022-10-26T00:18:33.720Z,22.53
2022-10-26T00:21:07.653Z,12.07
2022-10-26T00:23:34.386Z,14.90
2022-10-26T00:26:01.341Z,13.98
2022-10-26T00:28:28.379Z,16.23
2022-10-26T00:30:55.127Z,21.73
2022-10-26T00:33:21.807Z,22.63
2022-10-26T00:35:52.815Z,17.83
2022-10-26T00:38:19.742Z,16.70
2022-10-26T00:40:47.359Z,15.53
2022-10-26T00:43:35.861Z,20.60
2022-10-26T00:46:04.967Z,17.25
2022-10-26T00:48:45.886Z,16.47
2022-10-26T00:51:34.202Z,22.97
2022-10-26T00:54:03.992Z,21.23
2022-10-26T00:56:32.238Z,20.67
2022-10-26T00:59:03.344Z,18.60
2022-10-26T01:01:33.295Z,20.58
2022-10-26T01:04:00.827Z,19.87
2022-10-26T01:06:30.141Z,27.20
2022-10-26T01:08:56.789Z,22.53
2022-10-26T01:11:23.665Z,16.20
2022-10-26T01:13:53.074Z,23.07
2022-10-26T01:16:38.406Z,14.53
2022-10-26T01:19:15.870Z,16.37
2022-10-26T01:22:07.271Z,15.60
2022-10-26T01:24:55.651Z,26.23
2022-10-26T01:27:34.113Z,14.90
2022-10-26T01:30:20.255Z,21.63
2022-10-26T01:33:12.621Z,20.33
2022-10-26T01:36:00.647Z,17.93
2022-10-26T01:38:47.133Z,13.83
2022-10-26T01:41:21.590Z,13.93
2022-10-26T01:44:28.569Z,21.57
2022-10-26T01:46:57.962Z,16.23
2022-10-26T01:49:33.271Z,17.42
2022-10-26T01:51:59.958Z,23.40
2022-10-26T01:54:26.589Z,16.00
2022-10-26T01:57:00.358Z,18.40
2022-10-26T01:59:59.106Z,19.70
2022-10-26T02:02:42.289Z,19.03
2022-10-26T02:05:26.522Z,17.23
2022-10-26T02:08:04.896Z,18.17
2022-10-26T02:10:43.677Z,12.90
2022-10-26T02:13:25.430Z,21.23
2022-10-26T02:16:11.549Z,14.63
2022-10-26T02:18:44.447Z,16.37
2022-10-26T02:21:15.865Z,13.67
2022-10-26T02:23:45.342Z,19.03
2022-10-26T02:26:15.410Z,18.10
2022-10-26T02:28:46.990Z,14.73
2022-10-26T02:31:15.247Z,25.80
2022-10-26T02:33:46.818Z,18.70
2022-10-26T02:36:18.056Z,15.80
2022-10-26T02:38:46.603Z,18.30
2022-10-26T02:41:15.895Z,15.83
2022-10-26T02:43:48.247Z,17.80
2022-10-26T02:46:18.370Z,18.20
2022-10-26T02:48:45.231Z,13.30
2022-10-26T02:51:13.235Z,12.00
2022-10-26T02:53:57.750Z,16.90
2022-10-26T02:56:52.435Z,13.70
2022-10-26T02:59:22.071Z,13.30
2022-10-26T03:01:50.936Z,15.37
2022-10-26T03:04:17.676Z,19.23
2022-10-26T03:06:53.374Z,18.27
2022-10-26T03:09:21.151Z,19.33
2022-10-26T03:11:50.183Z,14.60
2022-10-26T03:14:16.814Z,26.30
2022-10-26T03:16:43.525Z,13.80
2022-10-26T03:19:10.223Z,16.47
2022-10-26T03:21:36.827Z,11.27
2022-10-26T03:24:03.558Z,18.50
2022-10-26T03:26:30.174Z,15.83
2022-10-26T03:28:56.790Z,13.27
2022-10-26T03:31:23.402Z,20.43
2022-10-26T03:33:50.065Z,15.97
2022-10-26T03:36:16.752Z,15.33
2022-10-26T03:38:43.331Z,17.40
2022-10-26T03:41:09.904Z,17.57
2022-10-26T03:43:36.609Z,17.40
2022-10-26T03:46:03.217Z,13.63
2022-10-26T03:48:29.797Z,17.43
2022-10-26T03:50:59.718Z,14.00
2022-10-26T03:53:27.011Z,14.63
2022-10-26T03:55:53.629Z,14.67
2022-10-26T03:58:20.405Z,27.43
2022-10-26T04:00:47.840Z,19.83
2022-10-26T04:03:14.445Z,14.83
2022-10-26T04:05:41.071Z,14.00
2022-10-26T04:08:08.808Z,16.40
2022-10-26T04:10:35.524Z,17.87
2022-10-26T04:13:02.323Z,13.27
2022-10-26T04:15:29.408Z,15.50
2022-10-26T04:18:00.761Z,16.27
2022-10-26T04:20:28.394Z,17.33
2022-10-26T04:23:03.561Z,14.37
2022-10-26T04:25:33.068Z,19.55
2022-10-26T04:28:01.019Z,19.90
2022-10-26T04:30:27.780Z,24.93
2022-10-26T04:32:54.385Z,23.30
2022-10-26T04:35:21.016Z,17.60
2022-10-26T04:37:47.821Z,19.33
2022-10-26T04:40:14.714Z,18.63
2022-10-26T04:42:46.428Z,17.43
2022-10-26T04:45:14.913Z,17.55
2022-10-26T04:47:42.132Z,16.07
2022-10-26T04:50:10.614Z,19.33
2022-10-26T04:52:37.510Z,16.13
2022-10-26T04:55:06.147Z,18.70
2022-10-26T04:57:36.032Z,18.87
2022-10-26T05:00:04.532Z,15.73
2022-10-26T05:02:31.185Z,18.20
2022-10-26T05:04:57.936Z,13.80
2022-10-26T05:07:24.580Z,17.10
2022-10-26T05:09:51.167Z,14.83
2022-10-26T05:12:17.787Z,15.93
2022-10-26T05:14:44.492Z,14.80
2022-10-26T05:17:11.071Z,14.50
2022-10-26T05:19:37.724Z,14.90
2022-10-26T05:22:04.624Z,14.60
2022-10-26T05:24:31.313Z,19.10
2022-10-26T05:26:57.979Z,16.90
2022-10-26T05:29:24.547Z,16.07
2022-10-26T05:31:51.913Z,15.63
2022-10-26T05:34:18.506Z,18.50
2022-10-26T05:36:45.115Z,14.30
2022-10-26T05:39:11.685Z,14.57
2022-10-26T05:41:38.307Z,16.60
2022-10-26T05:44:04.946Z,14.70
2022-10-26T05:46:31.560Z,18.53
2022-10-26T05:48:58.227Z,20.30
2022-10-26T05:51:24.793Z,17.07
2022-10-26T05:53:54.281Z,14.03
2022-10-26T05:56:31.229Z,17.50
2022-10-26T05:58:59.028Z,16.37
2022-10-26T06:01:31.424Z,17.50
2022-10-26T06:04:13.153Z,24.53
2022-10-26T06:06:43.986Z,25.60
2022-10-26T06:09:12.142Z,19.80
2022-10-26T06:11:39.168Z,15.90
2022-10-26T06:14:07.126Z,15.03
2022-10-26T06:16:42.612Z,14.30
2022-10-26T06:19:15.142Z,18.27
2022-10-26T06:22:21.846Z,16.70
2022-10-26T06:25:21.005Z,17.83
2022-10-26T06:28:18.365Z,15.00
2022-10-26T06:30:45.109Z,23.13
2022-10-26T06:33:25.026Z,18.33
2022-10-26T06:36:13.451Z,21.80
2022-10-26T06:38:44.296Z,19.53
2022-10-26T06:41:15.385Z,17.03
2022-10-26T06:43:42.330Z,17.60
2022-10-26T06:46:34.486Z,16.90
2022-10-26T06:49:36.457Z,18.20
2022-10-26T06:52:20.790Z,15.60
2022-10-26T06:54:49.554Z,16.92
2022-10-26T06:57:19.096Z,15.57
2022-10-26T06:59:48.135Z,16.33
2022-10-26T07:02:15.140Z,18.00
2022-10-26T07:04:43.517Z,17.00
2022-10-26T07:07:13.749Z,15.70
2022-10-26T07:09:40.434Z,21.67
2022-10-26T07:12:07.245Z,18.10
2022-10-26T07:14:33.900Z,23.00
2022-10-26T07:17:00.733Z,17.20
2022-10-26T07:19:27.393Z,28.80
2022-10-26T07:21:59.658Z,29.53
2022-10-26T07:24:26.539Z,51.50
2022-10-26T07:26:57.483Z,39.40
2022-10-26T07:29:25.512Z,33.93
2022-10-26T07:34:20.508Z,32.73
2022-10-26T07:36:47.249Z,26.30
2022-10-26T07:39:13.876Z,25.83
2022-10-26T07:41:40.469Z,33.63
2022-10-26T07:44:10.163Z,28.70
2022-10-26T07:46:36.769Z,28.10
2022-10-26T07:49:03.437Z,23.87
2022-10-26T07:51:30.002Z,19.20
2022-10-26T07:53:56.579Z,15.60
2022-10-26T07:56:23.227Z,20.43
2022-10-26T07:58:52.993Z,21.03
2022-10-26T08:01:19.720Z,17.90
2022-10-26T08:03:46.508Z,20.07
2022-10-26T08:06:13.109Z,19.93
2022-10-26T08:08:43.521Z,21.97
2022-10-26T08:11:13.757Z,17.00
2022-10-26T08:13:40.390Z,19.33
2022-10-26T08:16:07.189Z,14.10
2022-10-26T08:18:33.837Z,17.27
2022-10-26T08:21:11.620Z,16.65
2022-10-26T08:23:40.275Z,18.93
2022-10-26T08:26:07.547Z,17.97
2022-10-26T08:28:34.272Z,13.38
2022-10-26T08:31:00.882Z,17.07
2022-10-26T08:33:27.446Z,18.87
2022-10-26T08:35:59.432Z,16.33
2022-10-26T08:38:26.799Z,17.40
2022-10-26T08:40:56.140Z,21.95
2022-10-26T08:43:26.831Z,15.77
2022-10-26T08:46:06.316Z,19.08
2022-10-26T08:48:37.281Z,12.63
2022-10-26T08:51:22.202Z,19.40
2022-10-26T08:53:59.818Z,18.80
2022-10-26T08:56:33.671Z,15.33
2022-10-26T08:59:12.215Z,14.97
2022-10-26T09:01:39.174Z,13.63
2022-10-26T09:04:11.689Z,15.43
2022-10-26T09:06:44.161Z,29.73
2022-10-26T09:09:53.072Z,16.93
2022-10-26T09:12:27.657Z,17.23
2022-10-26T09:14:57.266Z,17.83
2022-10-26T09:17:43.321Z,14.97
2022-10-26T09:20:28.006Z,15.97
2022-10-26T09:23:06.509Z,28.83
2022-10-26T09:25:39.722Z,17.40
2022-10-26T09:28:15.522Z,20.13
2022-10-26T09:30:45.652Z,15.43
2022-10-26T09:33:23.028Z,17.00
2022-10-26T09:36:01.210Z,16.43
2022-10-26T09:38:55.227Z,22.73
2022-10-26T09:41:41.986Z,28.27
2022-10-26T09:44:17.615Z,18.43
2022-10-26T09:47:00.018Z,15.38
2022-10-26T09:49:41.296Z,16.23
2022-10-26T09:52:08.268Z,22.87
2022-10-26T09:54:34.965Z,14.60
2022-10-26T09:57:02.524Z,14.10
2022-10-26T09:59:33.706Z,15.17
2022-10-26T10:02:00.579Z,22.07
2022-10-26T10:04:27.326Z,20.50
2022-10-26T10:07:13.983Z,19.73
2022-10-26T10:09:40.754Z,15.77
2022-10-26T10:12:20.404Z,21.33
2022-10-26T10:14:58.459Z,17.70
2022-10-26T10:17:25.705Z,15.90
2022-10-26T10:19:52.671Z,15.57
2022-10-26T10:22:24.098Z,15.53
2022-10-26T10:24:59.607Z,16.88
2022-10-26T10:27:28.082Z,15.15
2022-10-26T10:29:59.964Z,17.00
2022-10-26T10:32:35.448Z,19.00
2022-10-26T10:35:29.382Z,16.37
2022-10-26T10:37:56.480Z,22.33
2022-10-26T10:40:31.315Z,14.53
2022-10-26T10:43:12.318Z,18.23
2022-10-26T10:45:40.403Z,15.80
2022-10-26T10:48:12.740Z,17.80
2022-10-26T10:50:52.621Z,15.70
2022-10-26T10:53:37.185Z,21.33
2022-10-26T10:56:31.856Z,22.70
2022-10-26T10:59:36.221Z,28.02
2022-10-26T11:02:05.789Z,18.97
2022-10-26T11:04:56.074Z,27.63
2022-10-26T11:07:25.810Z,16.70
2022-10-26T11:15:14.270Z,15.60
2022-10-26T11:18:13.054Z,18.00
2022-10-26T11:20:46.039Z,18.73
2022-10-26T11:23:22.721Z,23.17
2022-10-26T11:26:18.620Z,15.47
2022-10-26T11:29:02.039Z,17.37
2022-10-26T11:31:44.033Z,18.77
2022-10-26T11:34:16.413Z,17.90
2022-10-26T11:36:49.139Z,17.67
2022-10-26T11:39:20.410Z,15.70
2022-10-26T11:42:03.105Z,14.70
2022-10-26T11:44:47.060Z,14.45
2022-10-26T11:47:43.743Z,16.83
2022-10-26T11:50:22.896Z,17.00
2022-10-26T11:53:18.078Z,20.30
2022-10-26T11:55:55.677Z,17.47
2022-10-26T11:58:26.333Z,20.90
2022-10-26T12:01:01.674Z,25.80
2022-10-26T12:03:36.427Z,16.50
2022-10-26T12:06:03.452Z,14.80
2022-10-26T12:08:38.548Z,30.10
2022-10-26T12:11:19.163Z,19.67
2022-10-26T12:13:52.475Z,21.40
2022-10-26T12:16:39.856Z,30.37
2022-10-26T12:19:19.535Z,20.87
2022-10-26T12:21:48.262Z,20.13
2022-10-26T12:24:23.841Z,29.30
2022-10-26T12:26:51.441Z,20.13
2022-10-26T12:29:29.980Z,29.43
2022-10-26T12:31:56.876Z,21.50
2022-10-26T12:34:44.283Z,22.30
2022-10-26T12:37:24.361Z,20.57
2022-10-26T12:39:51.342Z,21.63
2022-10-26T12:42:17.922Z,18.20
2022-10-26T12:44:47.196Z,15.98
2022-10-26T12:47:29.088Z,20.40
2022-10-26T12:49:58.860Z,18.33
2022-10-26T12:52:42.815Z,17.47
2022-10-26T12:55:12.445Z,20.80
2022-10-26T12:57:59.883Z,17.30
2022-10-26T13:00:27.973Z,27.27
2022-10-26T13:03:30.074Z,26.97
2022-10-26T13:06:34.386Z,23.83
2022-10-26T13:09:09.781Z,22.37
2022-10-26T13:11:38.342Z,14.67
2022-10-26T13:14:08.572Z,20.57
2022-10-26T13:16:35.472Z,15.30
2022-10-26T13:19:02.215Z,16.40
2022-10-26T13:21:28.874Z,18.00
2022-10-26T13:24:01.378Z,16.17
2022-10-26T13:26:30.195Z,19.90
2022-10-26T13:29:02.474Z,19.23
2022-10-26T13:31:29.083Z,16.77
2022-10-26T13:34:03.304Z,16.73
2022-10-26T13:36:44.826Z,15.20
2022-10-26T13:39:27.157Z,19.07
2022-10-26T13:41:56.127Z,21.65
2022-10-26T13:44:30.781Z,20.77
2022-10-26T13:47:04.937Z,17.88
2022-10-26T13:49:38.971Z,17.93
2022-10-26T13:52:12.470Z,31.97
2022-10-26T13:54:55.861Z,22.07
2022-10-26T13:57:25.624Z,21.57
2022-10-26T13:59:53.836Z,20.70
2022-10-26T14:02:26.024Z,23.57
2022-10-26T14:05:04.961Z,21.43
2022-10-26T14:10:26.805Z,20.80
2022-10-26T14:12:54.161Z,28.23
2022-10-26T14:15:32.556Z,25.63
2022-10-26T14:18:01.199Z,23.05
2022-10-26T14:20:29.931Z,24.70
2022-10-26T14:22:58.790Z,25.98
2022-10-26T14:25:41.756Z,22.63
2022-10-26T14:28:23.290Z,20.00
2022-10-26T14:30:51.212Z,16.80
2022-10-26T14:33:20.514Z,21.10
2022-10-26T14:35:47.794Z,21.90
2022-10-26T14:38:21.314Z,17.10
2022-10-26T14:40:49.369Z,16.30
2022-10-26T14:43:22.665Z,18.47
2022-10-26T14:45:51.914Z,17.03
2022-10-26T14:48:35.533Z,18.43
2022-10-26T14:51:06.987Z,15.13
2022-10-26T14:53:37.185Z,15.37
2022-10-26T14:56:05.899Z,18.00
2022-10-26T14:58:33.844Z,16.17
2022-10-26T15:01:22.554Z,16.40
2022-10-26T15:04:02.069Z,17.47
2022-10-26T15:06:28.678Z,15.85
2022-10-26T15:08:59.997Z,13.65
2022-10-26T15:11:27.880Z,16.60
2022-10-26T15:13:55.824Z,21.77
2022-10-26T15:16:26.005Z,15.00
2022-10-26T15:18:56.891Z,14.63
2022-10-26T15:21:34.471Z,18.40
2022-10-26T15:24:02.217Z,16.07
2022-10-26T15:26:29.330Z,15.30
2022-10-26T15:28:56.210Z,17.00
2022-10-26T15:31:32.066Z,16.40
2022-10-26T15:34:01.738Z,17.10
2022-10-26T15:36:33.196Z,17.20
2022-10-26T15:38:59.859Z,18.90
2022-10-26T15:41:44.201Z,17.63
2022-10-26T15:44:16.068Z,13.17
2022-10-26T15:46:43.150Z,23.20
2022-10-26T15:49:17.660Z,15.23
2022-10-26T15:51:46.510Z,16.23
2022-10-26T15:54:13.664Z,19.67
2022-10-26T15:56:43.483Z,14.37
2022-10-26T15:59:20.453Z,21.30
2022-10-26T16:01:47.184Z,20.60
2022-10-26T16:04:13.950Z,30.23
2022-10-26T16:06:42.001Z,28.07
2022-10-26T16:09:15.871Z,24.23
2022-10-26T16:11:43.607Z,27.80
2022-10-26T16:14:10.982Z,29.57
2022-10-26T16:16:37.621Z,29.70
2022-10-26T16:19:30.320Z,18.70
2022-10-26T16:21:51.515Z,30.38
2022-10-26T16:24:18.149Z,29.57
2022-10-26T16:26:45.085Z,44.37
2022-10-26T16:29:11.750Z,42.10
2022-10-26T16:31:38.366Z,55.97
2022-10-26T16:34:05.011Z,48.42
2022-10-26T16:36:34.883Z,39.23
2022-10-26T16:41:29.178Z,31.97
2022-10-26T16:43:56.465Z,31.70
2022-10-26T16:46:23.085Z,29.70
2022-10-26T16:48:50.807Z,39.10
2022-10-26T16:51:26.433Z,42.43
2022-10-26T16:53:54.928Z,33.30
2022-10-26T16:56:29.976Z,39.73
2022-10-26T16:58:57.079Z,26.27
2022-10-26T17:01:23.964Z,31.57
2022-10-26T17:03:52.774Z,33.80
2022-10-26T17:06:19.950Z,25.07
2022-10-26T17:08:46.995Z,39.73
2022-10-26T17:11:16.489Z,30.97
2022-10-26T17:13:44.263Z,33.53
2022-10-26T17:16:13.702Z,30.70
2022-10-26T17:18:44.504Z,33.42
2022-10-26T17:21:13.019Z,31.90
2022-10-26T17:23:39.994Z,33.57
2022-10-26T17:26:09.090Z,30.57
2022-10-26T17:28:36.310Z,27.20
2022-10-26T17:31:08.659Z,28.73
2022-10-26T17:33:38.431Z,39.13
2022-10-26T17:36:06.902Z,37.23
2022-10-26T17:38:35.168Z,26.53
2022-10-26T17:41:02.874Z,34.33
2022-10-26T17:43:34.102Z,30.83
2022-10-26T17:46:02.534Z,27.13
2022-10-26T17:48:30.392Z,27.67
2022-10-26T17:51:01.829Z,20.03
2022-10-26T17:53:29.354Z,24.27
2022-10-26T17:56:06.391Z,23.83
2022-10-26T17:58:34.180Z,24.70
2022-10-26T18:01:05.796Z,24.70
2022-10-26T18:03:33.214Z,25.70
2022-10-26T18:06:00.542Z,32.20
2022-10-26T18:08:30.993Z,29.73
2022-10-26T18:11:00.909Z,28.73
2022-10-26T18:13:29.049Z,25.77
2022-10-26T18:15:55.724Z,40.00
2022-10-26T18:18:22.290Z,25.73
2022-10-26T18:20:48.909Z,28.33
2022-10-26T18:23:15.849Z,27.43
2022-10-26T18:25:42.449Z,25.42
2022-10-26T18:28:09.136Z,23.27
2022-10-26T18:30:35.825Z,31.67
2022-10-26T18:33:02.415Z,32.20
2022-10-26T18:35:29.014Z,31.47
2022-10-26T18:37:55.597Z,47.77
2022-10-26T18:40:22.324Z,30.27
2022-10-26T18:42:48.972Z,22.13
2022-10-26T18:45:15.744Z,30.50
2022-10-26T18:47:42.347Z,32.83
2022-10-26T18:50:09.111Z,36.20
2022-10-26T18:52:35.726Z,29.10
2022-10-26T18:55:03.505Z,33.83
2022-10-26T18:57:30.144Z,26.20
2022-10-26T18:59:56.808Z,21.60
2022-10-26T19:02:23.480Z,24.47
2022-10-26T19:04:53.071Z,28.07
2022-10-26T19:07:20.154Z,26.27
2022-10-26T19:09:46.771Z,23.43
2022-10-26T19:12:13.337Z,22.07
2022-10-26T19:14:39.963Z,25.27
2022-10-26T19:17:06.921Z,31.87
2022-10-26T19:19:33.588Z,23.70
2022-10-26T19:22:00.969Z,30.13
2022-10-26T19:24:27.631Z,31.23
2022-10-26T19:26:54.283Z,16.90
2022-10-26T19:29:21.401Z,20.83
2022-10-26T19:31:50.716Z,22.13
2022-10-26T19:34:17.994Z,24.90
2022-10-26T19:36:46.728Z,26.70
2022-10-26T19:39:17.643Z,18.07
2022-10-26T19:41:45.909Z,22.90
2022-10-26T19:44:13.931Z,23.30
2022-10-26T19:46:40.665Z,15.57
2022-10-26T19:49:07.689Z,22.40
2022-10-26T19:51:34.865Z,17.00
2022-10-26T19:54:03.865Z,20.60
2022-10-26T19:56:31.785Z,26.05
2022-10-26T19:58:58.412Z,14.77
2022-10-26T20:01:25.309Z,21.10
2022-10-26T20:03:51.991Z,29.27
2022-10-26T20:06:18.656Z,17.20
2022-10-26T20:08:47.826Z,26.03
2022-10-26T20:11:16.563Z,12.55
2022-10-26T20:13:44.700Z,20.83
2022-10-26T20:16:12.025Z,16.92
2022-10-26T20:18:42.640Z,15.53
2022-10-26T20:21:16.326Z,15.23
2022-10-26T20:23:43.819Z,21.70
2022-10-26T20:26:18.004Z,16.93
2022-10-26T20:28:48.346Z,18.70
2022-10-26T20:31:14.987Z,16.20
2022-10-26T20:33:41.566Z,18.90
2022-10-26T20:36:08.408Z,21.30
2022-10-26T20:38:35.375Z,22.37
2022-10-26T20:41:06.105Z,14.63
2022-10-26T20:43:38.496Z,21.90
2022-10-26T20:46:05.834Z,19.80
2022-10-26T20:48:32.794Z,23.95
2022-10-26T20:51:06.162Z,16.50
2022-10-26T20:53:38.148Z,17.43
2022-10-26T20:56:10.590Z,13.37
2022-10-26T20:58:43.312Z,16.67
2022-10-26T21:01:27.185Z,16.40
2022-10-26T21:03:55.875Z,23.10
2022-10-26T21:06:24.669Z,19.70
2022-10-26T21:08:52.617Z,29.98
2022-10-26T21:11:20.772Z,26.23
2022-10-26T21:13:49.020Z,16.93
2022-10-26T21:16:17.214Z,14.77
2022-10-26T21:18:44.372Z,18.53
2022-10-26T21:21:11.214Z,20.80
2022-10-26T21:23:40.016Z,17.57
2022-10-26T21:26:08.341Z,13.07
2022-10-26T21:28:34.890Z,20.43
2022-10-26T21:31:03.380Z,18.43
2022-10-26T21:33:34.213Z,21.00
2022-10-26T21:36:02.455Z,18.10
2022-10-26T21:38:30.769Z,15.07
2022-10-26T21:41:18.415Z,15.93
2022-10-26T21:43:48.417Z,15.70
2022-10-26T21:46:16.569Z,14.97
2022-10-26T21:48:43.538Z,22.03
2022-10-26T21:51:16.343Z,21.63
2022-10-26T21:53:43.673Z,20.90
2022-10-26T21:56:17.809Z,21.33
2022-10-26T21:58:44.865Z,19.73
2022-10-26T22:01:14.143Z,21.87
2022-10-26T22:03:41.534Z,30.63
2022-10-26T22:06:09.956Z,24.00
2022-10-26T22:08:36.961Z,17.60
2022-10-26T22:11:18.269Z,19.00
2022-10-26T22:13:46.322Z,21.63
2022-10-26T22:16:22.281Z,23.33
2022-10-26T22:18:50.791Z,22.57
2022-10-26T22:21:19.376Z,28.03
2022-10-26T22:23:46.751Z,20.17
2022-10-26T22:26:21.662Z,21.93
2022-10-26T22:28:50.719Z,24.13
2022-10-26T22:34:08.090Z,23.87
2022-10-26T22:36:35.281Z,19.93
2022-10-26T22:39:03.709Z,18.97
2022-10-26T22:41:30.749Z,18.73
2022-10-26T22:43:57.497Z,21.93
2022-10-26T22:46:26.558Z,22.23
2022-10-26T22:48:55.157Z,29.80
2022-10-26T22:51:23.188Z,20.00
2022-10-26T22:53:57.646Z,22.30
2022-10-26T22:58:52.582Z,21.63
2022-10-26T23:01:25.519Z,17.83
2022-10-26T23:03:55.941Z,23.43
2022-10-26T23:06:25.006Z,16.60
2022-10-26T23:08:51.995Z,18.80
2022-10-26T23:11:20.970Z,19.73
2022-10-26T23:13:48.063Z,22.67
2022-10-26T23:16:17.919Z,25.42
2022-10-26T23:18:44.650Z,17.00
2022-10-26T23:21:12.526Z,35.53
2022-10-26T23:23:39.847Z,25.63
2022-10-26T23:26:09.220Z,16.67
2022-10-26T23:28:36.516Z,20.97
2022-10-26T23:31:03.165Z,14.47
2022-10-26T23:33:30.191Z,16.03
2022-10-26T23:35:57.445Z,19.53
2022-10-26T23:38:25.382Z,17.27
2022-10-26T23:40:56.680Z,17.23
2022-10-26T23:43:25.419Z,14.73
2022-10-26T23:45:52.553Z,14.97
2022-10-26T23:48:19.861Z,16.50
2022-10-26T23:50:48.422Z,17.63
2022-10-26T23:53:16.988Z,16.33
2022-10-26T23:55:47.063Z,18.53
2022-10-26T23:58:14.779Z,23.37
